الصفحة الرئيسية
METAR-TAF:

METAR-TAF

مطار :

كوستناي, كازاخستان

دائرة عرض: 53-12-23N, خط طول: 063-33-03E, ارتفاع: 182 متر

مراقبة الطقس الحالي

تاريخ ووقت الإصدار 34 دقيقة قبل الساعة 17:30UTC
ريح 4 عقدة من الغرب/الشمال الغربي
درجة الحرارة 14°درجة مئوية
الرطوبة 82%
ضغط 1015 hPa
الرؤية 10 كم أو أكثر
الغيوم لا تقل 1500 م ولا وجود لمزنة ركامية السحاب الأسود

METAR: UAUU 161730Z 29002MPS CAVOK 14/11 Q1015 R33/CLRD70 NOSIG RMK QFE746/0994

زمن: 00:04 (18:04 UTC)

توقعات

تاريخ ووقت الإصدار 4ساعات و 4 دقيقة قبل الساعة 14:00UTC
التوقعات صالحة من16 الساعة 15 UTC إلى 16 الساعة 24 UTC
ريح 10 عقدة من الشمال الغربي
الرؤية 10 كم أو أكثر
غيوم متفرقة على ارتفاع 3000 قدم
أصبح
من 16 الساعة 18 UTC إلى 16 الساعة 19 UTC
ريح 10 عقدة من الغرب/الجنوب الغربي

TAF: UAUU 161400Z 1615/1624 32005MPS 9999 SCT030 BECMG 1618/1619 25005MPS

أرصاد الطقس والتوقعات من أكثر من 4000 مطار (تقارير الطقس للمطار METAR والتنبؤ بالطقس بالمطارTAF).

المحطات المتاحة هي النقط الصفراء والحمراء على الخريطة.

حرك المؤشر فوق النقطة لمعرفة اسم المحطة.

ثم انقر لمعرفة أرصاد وتوقعات الطقس.

لتغيير الخارطة: اضغط على الأزرار الخضراء مع رمز الصليب الأسود للتكبير. على الزر الأخضر مع شرطة للتصغير، أو على الأسهم الخضراء للخرائط المجاورة.


METAR-TAF: